sensor_id;sensor_type;location;lat;lon;timestamp;temperature;humidity
4759;DHT22;2393;50.560;12.636;2023-04-24T00:01:53;12.10;99.90
4759;DHT22;2393;50.560;12.636;2023-04-24T00:04:22;12.00;99.90
4759;DHT22;2393;50.560;12.636;2023-04-24T00:06:53;12.00;99.90
4759;DHT22;2393;50.560;12.636;2023-04-24T00:09:24;11.90;99.90
4759;DHT22;2393;50.560;12.636;2023-04-24T00:11:52;11.90;99.90
4759;DHT22;2393;50.560;12.636;2023-04-24T00:14:21;11.80;99.90
4759;DHT22;2393;50.560;12.636;2023-04-24T00:16:50;11.70;99.90
4759;DHT22;2393;50.560;12.636;2023-04-24T00:19:19;11.70;99.90
4759;DHT22;2393;50.560;12.636;2023-04-24T00:21:48;11.70;99.90
4759;DHT22;2393;50.560;12.636;2023-04-24T00:24:17;11.60;99.90
4759;DHT22;2393;50.560;12.636;2023-04-24T00:26:45;11.60;99.90
4759;DHT22;2393;50.560;12.636;2023-04-24T00:29:14;11.60;99.90
4759;DHT22;2393;50.560;12.636;2023-04-24T00:31:42;11.50;99.90
4759;DHT22;2393;50.560;12.636;2023-04-24T00:34:12;11.50;99.90
4759;DHT22;2393;50.560;12.636;2023-04-24T00:36:40;11.50;99.90
4759;DHT22;2393;50.560;12.636;2023-04-24T00:39:08;11.50;99.90
4759;DHT22;2393;50.560;12.636;2023-04-24T00:41:37;11.40;99.90
4759;DHT22;2393;50.560;12.636;2023-04-24T00:44:05;11.40;99.90
4759;DHT22;2393;50.560;12.636;2023-04-24T00:46:33;11.40;99.90
4759;DHT22;2393;50.560;12.636;2023-04-24T00:49:05;11.40;99.90
4759;DHT22;2393;50.560;12.636;2023-04-24T00:51:34;11.40;99.90
4759;DHT22;2393;50.560;12.636;2023-04-24T00:54:03;11.40;99.90
4759;DHT22;2393;50.560;12.636;2023-04-24T00:56:33;11.40;99.90
4759;DHT22;2393;50.560;12.636;2023-04-24T00:59:01;11.20;99.90
4759;DHT22;2393;50.560;12.636;2023-04-24T01:01:30;11.30;99.90
4759;DHT22;2393;50.560;12.636;2023-04-24T01:03:59;11.30;99.90
4759;DHT22;2393;50.560;12.636;2023-04-24T01:06:29;11.30;99.90
4759;DHT22;2393;50.560;12.636;2023-04-24T01:09:00;11.30;99.90
4759;DHT22;2393;50.560;12.636;2023-04-24T01:11:30;11.20;99.90
4759;DHT22;2393;50.560;12.636;2023-04-24T01:13:58;11.20;99.90
4759;DHT22;2393;50.560;12.636;2023-04-24T01:16:26;11.20;99.90
4759;DHT22;2393;50.560;12.636;2023-04-24T01:18:54;11.20;99.90
4759;DHT22;2393;50.560;12.636;2023-04-24T01:21:23;11.20;99.90
4759;DHT22;2393;50.560;12.636;2023-04-24T01:23:57;11.20;99.90
4759;DHT22;2393;50.560;12.636;2023-04-24T01:26:26;11.20;99.90
4759;DHT22;2393;50.560;12.636;2023-04-24T01:28:54;11.20;99.90
4759;DHT22;2393;50.560;12.636;2023-04-24T01:31:22;11.20;99.90
4759;DHT22;2393;50.560;12.636;2023-04-24T01:33:51;11.20;99.90
4759;DHT22;2393;50.560;12.636;2023-04-24T01:36:20;11.20;99.90
4759;DHT22;2393;50.560;12.636;2023-04-24T01:38:53;11.20;99.90
4759;DHT22;2393;50.560;12.636;2023-04-24T01:41:27;11.10;99.90
4759;DHT22;2393;50.560;12.636;2023-04-24T01:43:57;11.10;99.90
4759;DHT22;2393;50.560;12.636;2023-04-24T01:46:25;11.10;99.90
4759;DHT22;2393;50.560;12.636;2023-04-24T01:48:53;11.10;99.90
4759;DHT22;2393;50.560;12.636;2023-04-24T01:51:23;11.10;99.90
4759;DHT22;2393;50.560;12.636;2023-04-24T01:53:51;11.10;99.90
4759;DHT22;2393;50.560;12.636;2023-04-24T01:56:20;11.10;99.90
4759;DHT22;2393;50.560;12.636;2023-04-24T01:58:49;11.10;99.90
4759;DHT22;2393;50.560;12.636;2023-04-24T02:01:18;11.10;99.90
4759;DHT22;2393;50.560;12.636;2023-04-24T02:03:47;11.00;99.90
4759;DHT22;2393;50.560;12.636;2023-04-24T02:06:15;11.00;99.90
4759;DHT22;2393;50.560;12.636;2023-04-24T02:08:43;11.00;99.90
4759;DHT22;2393;50.560;12.636;2023-04-24T02:11:11;11.00;99.90
4759;DHT22;2393;50.560;12.636;2023-04-24T02:13:39;11.00;99.90
4759;DHT22;2393;50.560;12.636;2023-04-24T02:16:09;11.00;99.90
4759;DHT22;2393;50.560;12.636;2023-04-24T02:18:37;11.00;99.90
4759;DHT22;2393;50.560;12.636;2023-04-24T02:21:05;11.00;99.90
4759;DHT22;2393;50.560;12.636;2023-04-24T02:23:35;11.00;99.90
4759;DHT22;2393;50.560;12.636;2023-04-24T02:26:04;11.00;99.90
4759;DHT22;2393;50.560;12.636;2023-04-24T02:28:32;10.90;99.90
4759;DHT22;2393;50.560;12.636;2023-04-24T02:31:01;10.90;99.90
4759;DHT22;2393;50.560;12.636;2023-04-24T02:33:31;10.80;99.90
4759;DHT22;2393;50.560;12.636;2023-04-24T02:35:59;10.80;99.90
4759;DHT22;2393;50.560;12.636;2023-04-24T02:38:27;10.90;99.90
4759;DHT22;2393;50.560;12.636;2023-04-24T02:40:55;10.90;99.90
4759;DHT22;2393;50.560;12.636;2023-04-24T02:43:25;10.80;99.90
4759;DHT22;2393;50.560;12.636;2023-04-24T02:45:53;10.80;99.90
4759;DHT22;2393;50.560;12.636;2023-04-24T02:48:22;10.80;99.90
4759;DHT22;2393;50.560;12.636;2023-04-24T02:50:52;10.80;99.90
4759;DHT22;2393;50.560;12.636;2023-04-24T02:53:20;10.80;99.90
4759;DHT22;2393;50.560;12.636;2023-04-24T02:55:48;10.80;99.90
4759;DHT22;2393;50.560;12.636;2023-04-24T02:58:16;10.80;99.90
4759;DHT22;2393;50.560;12.636;2023-04-24T03:00:46;10.80;99.90
4759;DHT22;2393;50.560;12.636;2023-04-24T03:03:14;10.70;99.90
4759;DHT22;2393;50.560;12.636;2023-04-24T03:05:43;10.70;99.90
4759;DHT22;2393;50.560;12.636;2023-04-24T03:08:12;10.70;99.90
4759;DHT22;2393;50.560;12.636;2023-04-24T03:10:42;10.70;99.90
4759;DHT22;2393;50.560;12.636;2023-04-24T03:13:15;10.70;99.90
4759;DHT22;2393;50.560;12.636;2023-04-24T03:15:43;10.60;99.90
4759;DHT22;2393;50.560;12.636;2023-04-24T03:18:13;10.60;99.90
4759;DHT22;2393;50.560;12.636;2023-04-24T03:20:42;10.60;99.90
4759;DHT22;2393;50.560;12.636;2023-04-24T03:23:11;10.60;99.90
4759;DHT22;2393;50.560;12.636;2023-04-24T03:25:40;10.50;99.90
4759;DHT22;2393;50.560;12.636;2023-04-24T03:28:10;10.50;99.90
4759;DHT22;2393;50.560;12.636;2023-04-24T03:30:50;10.50;99.90
4759;DHT22;2393;50.560;12.636;2023-04-24T03:33:20;10.50;99.90
4759;DHT22;2393;50.560;12.636;2023-04-24T03:35:56;10.40;99.90
4759;DHT22;2393;50.560;12.636;2023-04-24T03:38:33;10.40;99.90
4759;DHT22;2393;50.560;12.636;2023-04-24T03:41:21;10.50;99.90
4759;DHT22;2393;50.560;12.636;2023-04-24T03:43:54;10.50;99.90
4759;DHT22;2393;50.560;12.636;2023-04-24T03:46:22;10.50;99.90
4759;DHT22;2393;50.560;12.636;2023-04-24T03:48:54;10.50;99.90
4759;DHT22;2393;50.560;12.636;2023-04-24T03:51:26;10.50;99.90
4759;DHT22;2393;50.560;12.636;2023-04-24T03:54:04;10.50;99.90
4759;DHT22;2393;50.560;12.636;2023-04-24T03:56:35;10.50;99.90
4759;DHT22;2393;50.560;12.636;2023-04-24T03:59:03;10.50;99.90
4759;DHT22;2393;50.560;12.636;2023-04-24T04:01:32;10.40;99.90
4759;DHT22;2393;50.560;12.636;2023-04-24T04:04:13;10.40;99.90
4759;DHT22;2393;50.560;12.636;2023-04-24T04:06:43;10.40;99.90
4759;DHT22;2393;50.560;12.636;2023-04-24T04:09:14;10.40;99.90
4759;DHT22;2393;50.560;12.636;2023-04-24T04:11:42;10.40;99.90
4759;DHT22;2393;50.560;12.636;2023-04-24T04:14:11;10.40;99.90
4759;DHT22;2393;50.560;12.636;2023-04-24T04:16:43;10.30;99.90
4759;DHT22;2393;50.560;12.636;2023-04-24T04:19:11;10.40;99.90
4759;DHT22;2393;50.560;12.636;2023-04-24T04:21:39;10.40;99.90
4759;DHT22;2393;50.560;12.636;2023-04-24T04:24:17;10.40;99.90
4759;DHT22;2393;50.560;12.636;2023-04-24T04:26:46;10.40;99.90
4759;DHT22;2393;50.560;12.636;2023-04-24T04:29:25;10.40;99.90
4759;DHT22;2393;50.560;12.636;2023-04-24T04:31:53;10.30;99.90
4759;DHT22;2393;50.560;12.636;2023-04-24T04:34:22;10.30;99.90
4759;DHT22;2393;50.560;12.636;2023-04-24T04:36:51;10.30;99.90
4759;DHT22;2393;50.560;12.636;2023-04-24T04:39:39;10.40;99.90
4759;DHT22;2393;50.560;12.636;2023-04-24T04:42:12;10.40;99.90
4759;DHT22;2393;50.560;12.636;2023-04-24T04:44:42;10.40;99.90
4759;DHT22;2393;50.560;12.636;2023-04-24T04:47:16;10.40;99.90
4759;DHT22;2393;50.560;12.636;2023-04-24T04:49:45;10.50;99.90
4759;DHT22;2393;50.560;12.636;2023-04-24T04:52:19;10.40;99.90
4759;DHT22;2393;50.560;12.636;2023-04-24T04:55:02;10.40;99.90
4759;DHT22;2393;50.560;12.636;2023-04-24T04:57:50;10.40;99.90
4759;DHT22;2393;50.560;12.636;2023-04-24T05:00:19;10.50;99.90
4759;DHT22;2393;50.560;12.636;2023-04-24T05:02:51;10.50;99.90
4759;DHT22;2393;50.560;12.636;2023-04-24T05:05:19;10.50;99.90
4759;DHT22;2393;50.560;12.636;2023-04-24T05:07:48;10.50;99.90
4759;DHT22;2393;50.560;12.636;2023-04-24T05:10:17;10.50;99.90
4759;DHT22;2393;50.560;12.636;2023-04-24T05:12:46;10.60;99.90
4759;DHT22;2393;50.560;12.636;2023-04-24T05:15:14;10.60;99.90
4759;DHT22;2393;50.560;12.636;2023-04-24T05:17:42;10.60;99.90
4759;DHT22;2393;50.560;12.636;2023-04-24T05:20:11;10.60;99.90
4759;DHT22;2393;50.560;12.636;2023-04-24T05:22:39;10.60;99.90
4759;DHT22;2393;50.560;12.636;2023-04-24T05:25:07;10.60;99.90
4759;DHT22;2393;50.560;12.636;2023-04-24T05:27:42;10.60;99.90
4759;DHT22;2393;50.560;12.636;2023-04-24T05:30:14;10.60;99.90
4759;DHT22;2393;50.560;12.636;2023-04-24T05:32:42;10.70;99.90
4759;DHT22;2393;50.560;12.636;2023-04-24T05:35:12;10.70;99.90
4759;DHT22;2393;50.560;12.636;2023-04-24T05:37:40;10.80;99.90
4759;DHT22;2393;50.560;12.636;2023-04-24T05:40:10;10.80;99.90
4759;DHT22;2393;50.560;12.636;2023-04-24T05:42:38;10.80;99.90
4759;DHT22;2393;50.560;12.636;2023-04-24T05:45:08;10.80;99.90
4759;DHT22;2393;50.560;12.636;2023-04-24T05:47:41;10.80;99.90
4759;DHT22;2393;50.560;12.636;2023-04-24T05:50:10;10.90;99.90
4759;DHT22;2393;50.560;12.636;2023-04-24T05:52:39;10.90;99.90
4759;DHT22;2393;50.560;12.636;2023-04-24T05:55:20;11.00;99.90
4759;DHT22;2393;50.560;12.636;2023-04-24T05:57:48;11.00;99.90
4759;DHT22;2393;50.560;12.636;2023-04-24T06:00:19;11.00;99.90
4759;DHT22;2393;50.560;12.636;2023-04-24T06:02:56;11.00;99.90
4759;DHT22;2393;50.560;12.636;2023-04-24T06:05:26;11.00;99.90
4759;DHT22;2393;50.560;12.636;2023-04-24T06:07:54;11.00;99.90
4759;DHT22;2393;50.560;12.636;2023-04-24T06:10:25;11.00;99.90
4759;DHT22;2393;50.560;12.636;2023-04-24T06:12:54;11.10;99.90
4759;DHT22;2393;50.560;12.636;2023-04-24T06:15:30;11.10;99.90
4759;DHT22;2393;50.560;12.636;2023-04-24T06:18:04;11.10;99.90
4759;DHT22;2393;50.560;12.636;2023-04-24T06:20:32;11.10;99.90
4759;DHT22;2393;50.560;12.636;2023-04-24T06:23:01;11.20;99.90
4759;DHT22;2393;50.560;12.636;2023-04-24T06:25:32;11.10;99.90
4759;DHT22;2393;50.560;12.636;2023-04-24T06:28:00;11.20;99.90
4759;DHT22;2393;50.560;12.636;2023-04-24T06:30:31;11.20;99.90
4759;DHT22;2393;50.560;12.636;2023-04-24T06:33:00;11.20;99.90
4759;DHT22;2393;50.560;12.636;2023-04-24T06:35:47;11.30;99.90
4759;DHT22;2393;50.560;12.636;2023-04-24T06:38:15;11.20;99.90
4759;DHT22;2393;50.560;12.636;2023-04-24T06:40:43;11.30;99.90
4759;DHT22;2393;50.560;12.636;2023-04-24T06:43:11;11.30;99.90
4759;DHT22;2393;50.560;12.636;2023-04-24T06:45:41;11.40;99.90
4759;DHT22;2393;50.560;12.636;2023-04-24T06:48:10;11.40;99.90
4759;DHT22;2393;50.560;12.636;2023-04-24T06:50:38;11.40;99.90
4759;DHT22;2393;50.560;12.636;2023-04-24T06:53:07;11.50;99.90
4759;DHT22;2393;50.560;12.636;2023-04-24T06:55:35;11.50;99.90
4759;DHT22;2393;50.560;12.636;2023-04-24T06:58:03;11.40;99.90
4759;DHT22;2393;50.560;12.636;2023-04-24T07:00:32;11.40;99.90
4759;DHT22;2393;50.560;12.636;2023-04-24T07:03:02;11.40;99.90
4759;DHT22;2393;50.560;12.636;2023-04-24T07:05:32;11.40;99.90
4759;DHT22;2393;50.560;12.636;2023-04-24T07:08:02;11.40;99.90
4759;DHT22;2393;50.560;12.636;2023-04-24T07:10:30;11.40;99.90
4759;DHT22;2393;50.560;12.636;2023-04-24T07:13:00;11.40;99.90
4759;DHT22;2393;50.560;12.636;2023-04-24T07:15:29;11.50;99.90
4759;DHT22;2393;50.560;12.636;2023-04-24T07:17:57;11.40;99.90
4759;DHT22;2393;50.560;12.636;2023-04-24T07:20:26;11.40;99.90
4759;DHT22;2393;50.560;12.636;2023-04-24T07:22:54;11.40;99.90
4759;DHT22;2393;50.560;12.636;2023-04-24T07:25:22;11.50;99.90
4759;DHT22;2393;50.560;12.636;2023-04-24T07:27:50;11.60;99.90
4759;DHT22;2393;50.560;12.636;2023-04-24T07:30:19;11.60;99.90
4759;DHT22;2393;50.560;12.636;2023-04-24T07:32:46;11.70;99.90
4759;DHT22;2393;50.560;12.636;2023-04-24T07:35:16;11.70;99.90
4759;DHT22;2393;50.560;12.636;2023-04-24T07:37:45;11.80;99.90
4759;DHT22;2393;50.560;12.636;2023-04-24T07:40:13;11.90;99.90
4759;DHT22;2393;50.560;12.636;2023-04-24T07:42:41;12.00;99.90
4759;DHT22;2393;50.560;12.636;2023-04-24T07:45:10;12.10;99.90
4759;DHT22;2393;50.560;12.636;2023-04-24T07:47:38;12.20;99.90
4759;DHT22;2393;50.560;12.636;2023-04-24T07:50:07;12.20;99.90
4759;DHT22;2393;50.560;12.636;2023-04-24T07:52:35;12.20;99.90
4759;DHT22;2393;50.560;12.636;2023-04-24T07:55:06;12.30;99.90
4759;DHT22;2393;50.560;12.636;2023-04-24T07:57:34;12.30;99.90
4759;DHT22;2393;50.560;12.636;2023-04-24T08:00:03;12.30;99.90
4759;DHT22;2393;50.560;12.636;2023-04-24T08:02:37;12.30;99.90
4759;DHT22;2393;50.560;12.636;2023-04-24T08:05:06;12.30;99.90
4759;DHT22;2393;50.560;12.636;2023-04-24T08:07:34;12.30;99.90
4759;DHT22;2393;50.560;12.636;2023-04-24T08:10:05;12.40;99.90
4759;DHT22;2393;50.560;12.636;2023-04-24T08:12:33;12.50;99.90
4759;DHT22;2393;50.560;12.636;2023-04-24T08:15:01;12.50;99.90
4759;DHT22;2393;50.560;12.636;2023-04-24T08:17:29;12.60;99.90
4759;DHT22;2393;50.560;12.636;2023-04-24T08:20:00;12.70;99.90
4759;DHT22;2393;50.560;12.636;2023-04-24T08:22:29;12.70;99.90
4759;DHT22;2393;50.560;12.636;2023-04-24T08:24:59;12.80;99.90
4759;DHT22;2393;50.560;12.636;2023-04-24T08:27:28;12.90;99.90
4759;DHT22;2393;50.560;12.636;2023-04-24T08:29:57;13.00;99.90
4759;DHT22;2393;50.560;12.636;2023-04-24T08:32:25;13.10;99.90
4759;DHT22;2393;50.560;12.636;2023-04-24T08:34:54;13.20;99.90
4759;DHT22;2393;50.560;12.636;2023-04-24T08:37:23;13.50;99.90
4759;DHT22;2393;50.560;12.636;2023-04-24T08:39:52;13.70;99.90
4759;DHT22;2393;50.560;12.636;2023-04-24T08:42:20;13.90;99.90
4759;DHT22;2393;50.560;12.636;2023-04-24T08:44:50;13.90;99.90
4759;DHT22;2393;50.560;12.636;2023-04-24T08:47:19;13.90;99.90
4759;DHT22;2393;50.560;12.636;2023-04-24T08:49:48;13.90;99.90
4759;DHT22;2393;50.560;12.636;2023-04-24T08:52:18;13.80;99.90
4759;DHT22;2393;50.560;12.636;2023-04-24T08:54:47;13.60;99.90
4759;DHT22;2393;50.560;12.636;2023-04-24T08:57:16;13.60;99.90
4759;DHT22;2393;50.560;12.636;2023-04-24T08:59:44;13.40;99.90
4759;DHT22;2393;50.560;12.636;2023-04-24T09:02:14;13.30;99.90
4759;DHT22;2393;50.560;12.636;2023-04-24T09:04:44;13.20;99.90
4759;DHT22;2393;50.560;12.636;2023-04-24T09:07:14;13.20;99.90
4759;DHT22;2393;50.560;12.636;2023-04-24T09:09:43;13.20;99.90
4759;DHT22;2393;50.560;12.636;2023-04-24T09:12:12;13.20;99.90
4759;DHT22;2393;50.560;12.636;2023-04-24T09:14:40;13.30;99.90
4759;DHT22;2393;50.560;12.636;2023-04-24T09:17:13;13.40;99.90
4759;DHT22;2393;50.560;12.636;2023-04-24T09:19:41;13.40;99.90
4759;DHT22;2393;50.560;12.636;2023-04-24T09:22:11;13.40;99.90
4759;DHT22;2393;50.560;12.636;2023-04-24T09:24:39;13.50;99.90
4759;DHT22;2393;50.560;12.636;2023-04-24T09:27:07;13.60;99.90
4759;DHT22;2393;50.560;12.636;2023-04-24T09:29:38;13.70;99.90
4759;DHT22;2393;50.560;12.636;2023-04-24T09:32:20;13.70;99.90
4759;DHT22;2393;50.560;12.636;2023-04-24T09:35:05;13.80;99.90
4759;DHT22;2393;50.560;12.636;2023-04-24T09:37:38;13.80;99.90
4759;DHT22;2393;50.560;12.636;2023-04-24T09:40:12;13.70;99.90
4759;DHT22;2393;50.560;12.636;2023-04-24T09:42:43;13.60;99.90
4759;DHT22;2393;50.560;12.636;2023-04-24T09:45:12;13.70;99.90
4759;DHT22;2393;50.560;12.636;2023-04-24T09:47:43;13.70;99.90
4759;DHT22;2393;50.560;12.636;2023-04-24T09:50:13;13.90;99.90
4759;DHT22;2393;50.560;12.636;2023-04-24T09:52:47;14.10;99.90
4759;DHT22;2393;50.560;12.636;2023-04-24T09:55:23;14.10;99.90
4759;DHT22;2393;50.560;12.636;2023-04-24T09:57:53;14.00;99.90
4759;DHT22;2393;50.560;12.636;2023-04-24T10:00:25;13.90;99.90
4759;DHT22;2393;50.560;12.636;2023-04-24T10:03:00;13.70;99.90
4759;DHT22;2393;50.560;12.636;2023-04-24T10:05:29;13.60;99.90
4759;DHT22;2393;50.560;12.636;2023-04-24T10:08:01;13.70;99.90
4759;DHT22;2393;50.560;12.636;2023-04-24T10:10:30;14.00;99.90
4759;DHT22;2393;50.560;12.636;2023-04-24T10:12:59;14.40;99.90
4759;DHT22;2393;50.560;12.636;2023-04-24T10:15:28;14.60;99.90
4759;DHT22;2393;50.560;12.636;2023-04-24T10:17:59;14.70;99.90
4759;DHT22;2393;50.560;12.636;2023-04-24T10:20:28;14.70;99.90
4759;DHT22;2393;50.560;12.636;2023-04-24T10:22:58;14.80;99.90
4759;DHT22;2393;50.560;12.636;2023-04-24T10:25:28;14.80;99.90
4759;DHT22;2393;50.560;12.636;2023-04-24T10:27:59;14.80;99.90
4759;DHT22;2393;50.560;12.636;2023-04-24T10:30:28;14.70;99.90
4759;DHT22;2393;50.560;12.636;2023-04-24T10:32:56;14.80;99.90
4759;DHT22;2393;50.560;12.636;2023-04-24T10:35:26;15.00;99.90
4759;DHT22;2393;50.560;12.636;2023-04-24T10:37:58;15.40;99.90
4759;DHT22;2393;50.560;12.636;2023-04-24T10:40:31;15.60;99.90
4759;DHT22;2393;50.560;12.636;2023-04-24T10:43:01;15.60;99.90
4759;DHT22;2393;50.560;12.636;2023-04-24T10:45:30;15.60;99.90
4759;DHT22;2393;50.560;12.636;2023-04-24T10:47:59;15.40;99.90
4759;DHT22;2393;50.560;12.636;2023-04-24T10:50:44;15.20;99.90
4759;DHT22;2393;50.560;12.636;2023-04-24T10:53:15;15.00;99.90
4759;DHT22;2393;50.560;12.636;2023-04-24T10:55:46;14.60;99.90
4759;DHT22;2393;50.560;12.636;2023-04-24T10:58:14;14.50;99.90
4759;DHT22;2393;50.560;12.636;2023-04-24T11:00:44;14.40;99.90
4759;DHT22;2393;50.560;12.636;2023-04-24T11:03:26;14.30;99.90
4759;DHT22;2393;50.560;12.636;2023-04-24T11:06:01;14.20;99.90
4759;DHT22;2393;50.560;12.636;2023-04-24T11:08:32;14.20;99.90
4759;DHT22;2393;50.560;12.636;2023-04-24T11:11:03;14.30;99.90
4759;DHT22;2393;50.560;12.636;2023-04-24T11:14:04;14.20;99.90
4759;DHT22;2393;50.560;12.636;2023-04-24T11:16:35;14.10;99.90
4759;DHT22;2393;50.560;12.636;2023-04-24T11:19:06;14.10;99.90
4759;DHT22;2393;50.560;12.636;2023-04-24T11:21:44;14.10;99.90
4759;DHT22;2393;50.560;12.636;2023-04-24T11:24:30;14.10;99.90
4759;DHT22;2393;50.560;12.636;2023-04-24T11:27:05;14.20;99.90
4759;DHT22;2393;50.560;12.636;2023-04-24T11:29:39;14.30;99.90
4759;DHT22;2393;50.560;12.636;2023-04-24T11:35:05;14.60;99.90
4759;DHT22;2393;50.560;12.636;2023-04-24T11:37:37;14.60;99.90
4759;DHT22;2393;50.560;12.636;2023-04-24T11:40:07;14.50;99.90
4759;DHT22;2393;50.560;12.636;2023-04-24T11:42:36;14.70;99.90
4759;DHT22;2393;50.560;12.636;2023-04-24T11:45:08;14.90;99.90
4759;DHT22;2393;50.560;12.636;2023-04-24T11:47:37;14.90;99.90
4759;DHT22;2393;50.560;12.636;2023-04-24T11:50:08;14.90;99.90
4759;DHT22;2393;50.560;12.636;2023-04-24T11:52:39;14.80;99.80
4759;DHT22;2393;50.560;12.636;2023-04-24T11:55:12;14.80;99.90
4759;DHT22;2393;50.560;12.636;2023-04-24T11:57:52;14.90;99.90
4759;DHT22;2393;50.560;12.636;2023-04-24T12:00:22;14.80;99.90
4759;DHT22;2393;50.560;12.636;2023-04-24T12:02:50;14.80;99.90
4759;DHT22;2393;50.560;12.636;2023-04-24T12:05:19;14.80;99.90
4759;DHT22;2393;50.560;12.636;2023-04-24T12:07:50;14.90;99.90
4759;DHT22;2393;50.560;12.636;2023-04-24T12:10:20;15.10;99.90
4759;DHT22;2393;50.560;12.636;2023-04-24T12:12:49;15.20;99.90
4759;DHT22;2393;50.560;12.636;2023-04-24T12:15:19;15.20;99.90
4759;DHT22;2393;50.560;12.636;2023-04-24T12:17:47;15.00;99.90
4759;DHT22;2393;50.560;12.636;2023-04-24T12:20:16;15.00;99.90
4759;DHT22;2393;50.560;12.636;2023-04-24T12:22:45;14.80;99.90
4759;DHT22;2393;50.560;12.636;2023-04-24T12:25:16;14.90;99.90
4759;DHT22;2393;50.560;12.636;2023-04-24T12:27:45;15.10;99.90
4759;DHT22;2393;50.560;12.636;2023-04-24T12:30:15;15.40;99.90
4759;DHT22;2393;50.560;12.636;2023-04-24T12:32:45;15.40;99.90
4759;DHT22;2393;50.560;12.636;2023-04-24T12:35:14;15.40;99.90
4759;DHT22;2393;50.560;12.636;2023-04-24T12:37:42;15.10;99.90
4759;DHT22;2393;50.560;12.636;2023-04-24T12:40:15;15.00;99.90
4759;DHT22;2393;50.560;12.636;2023-04-24T12:42:44;14.80;99.90
4759;DHT22;2393;50.560;12.636;2023-04-24T12:45:13;14.50;99.90
4759;DHT22;2393;50.560;12.636;2023-04-24T12:47:43;14.20;99.90
4759;DHT22;2393;50.560;12.636;2023-04-24T12:50:13;14.10;99.90
4759;DHT22;2393;50.560;12.636;2023-04-24T12:52:42;13.80;99.90
4759;DHT22;2393;50.560;12.636;2023-04-24T12:55:10;13.70;99.90
4759;DHT22;2393;50.560;12.636;2023-04-24T12:57:41;13.80;99.90
4759;DHT22;2393;50.560;12.636;2023-04-24T13:00:09;13.80;99.90
4759;DHT22;2393;50.560;12.636;2023-04-24T13:02:37;13.90;99.90
4759;DHT22;2393;50.560;12.636;2023-04-24T13:05:06;14.00;99.90
4759;DHT22;2393;50.560;12.636;2023-04-24T13:07:34;14.20;99.90
4759;DHT22;2393;50.560;12.636;2023-04-24T13:10:03;14.50;99.90
4759;DHT22;2393;50.560;12.636;2023-04-24T13:12:31;14.70;99.90
4759;DHT22;2393;50.560;12.636;2023-04-24T13:15:00;14.60;99.90
4759;DHT22;2393;50.560;12.636;2023-04-24T13:17:28;14.70;99.90
4759;DHT22;2393;50.560;12.636;2023-04-24T13:19:57;14.60;99.90
4759;DHT22;2393;50.560;12.636;2023-04-24T13:22:25;14.70;99.90
4759;DHT22;2393;50.560;12.636;2023-04-24T13:24:54;14.80;99.90
4759;DHT22;2393;50.560;12.636;2023-04-24T13:27:23;14.90;99.90
4759;DHT22;2393;50.560;12.636;2023-04-24T13:29:50;15.00;99.90
4759;DHT22;2393;50.560;12.636;2023-04-24T13:32:20;15.10;99.90
4759;DHT22;2393;50.560;12.636;2023-04-24T13:34:48;15.20;99.90
4759;DHT22;2393;50.560;12.636;2023-04-24T13:37:16;15.40;99.90
4759;DHT22;2393;50.560;12.636;2023-04-24T13:39:44;15.30;99.90
4759;DHT22;2393;50.560;12.636;2023-04-24T13:42:12;15.20;99.90
4759;DHT22;2393;50.560;12.636;2023-04-24T13:44:41;14.90;99.90
4759;DHT22;2393;50.560;12.636;2023-04-24T13:47:09;14.70;99.90
4759;DHT22;2393;50.560;12.636;2023-04-24T13:49:38;14.60;99.90
4759;DHT22;2393;50.560;12.636;2023-04-24T13:52:06;14.50;99.90
4759;DHT22;2393;50.560;12.636;2023-04-24T13:54:37;14.50;99.90
4759;DHT22;2393;50.560;12.636;2023-04-24T13:57:05;14.40;99.90
4759;DHT22;2393;50.560;12.636;2023-04-24T13:59:33;14.30;99.90
4759;DHT22;2393;50.560;12.636;2023-04-24T14:02:01;14.30;99.90
4759;DHT22;2393;50.560;12.636;2023-04-24T14:04:29;14.20;99.90
4759;DHT22;2393;50.560;12.636;2023-04-24T14:06:59;14.00;99.90
4759;DHT22;2393;50.560;12.636;2023-04-24T14:09:27;13.90;99.90
4759;DHT22;2393;50.560;12.636;2023-04-24T14:11:55;13.90;99.90
4759;DHT22;2393;50.560;12.636;2023-04-24T14:14:23;13.90;99.90
4759;DHT22;2393;50.560;12.636;2023-04-24T14:16:51;13.90;99.90
4759;DHT22;2393;50.560;12.636;2023-04-24T14:19:20;14.00;99.90
4759;DHT22;2393;50.560;12.636;2023-04-24T14:21:48;14.10;99.90
4759;DHT22;2393;50.560;12.636;2023-04-24T14:24:18;14.00;99.90
4759;DHT22;2393;50.560;12.636;2023-04-24T14:26:46;13.80;99.90
4759;DHT22;2393;50.560;12.636;2023-04-24T14:29:14;13.60;99.90
4759;DHT22;2393;50.560;12.636;2023-04-24T14:31:43;13.50;99.90
4759;DHT22;2393;50.560;12.636;2023-04-24T14:34:12;13.50;99.90
4759;DHT22;2393;50.560;12.636;2023-04-24T14:36:41;13.60;99.90
4759;DHT22;2393;50.560;12.636;2023-04-24T14:39:09;13.60;99.90
4759;DHT22;2393;50.560;12.636;2023-04-24T14:41:39;13.70;99.90
4759;DHT22;2393;50.560;12.636;2023-04-24T14:44:08;13.80;99.90
4759;DHT22;2393;50.560;12.636;2023-04-24T14:46:36;13.80;99.90
4759;DHT22;2393;50.560;12.636;2023-04-24T14:49:04;13.80;99.90
4759;DHT22;2393;50.560;12.636;2023-04-24T14:51:32;13.80;99.90
4759;DHT22;2393;50.560;12.636;2023-04-24T14:54:01;13.60;99.90
4759;DHT22;2393;50.560;12.636;2023-04-24T14:56:29;13.50;99.90
4759;DHT22;2393;50.560;12.636;2023-04-24T14:58:59;13.40;99.90
4759;DHT22;2393;50.560;12.636;2023-04-24T15:01:27;13.20;99.90
4759;DHT22;2393;50.560;12.636;2023-04-24T15:03:55;13.00;99.90
4759;DHT22;2393;50.560;12.636;2023-04-24T15:06:23;12.90;99.90
4759;DHT22;2393;50.560;12.636;2023-04-24T15:08:51;12.90;99.90
4759;DHT22;2393;50.560;12.636;2023-04-24T15:11:19;12.90;99.90
4759;DHT22;2393;50.560;12.636;2023-04-24T15:13:47;12.90;99.90
4759;DHT22;2393;50.560;12.636;2023-04-24T15:16:17;13.00;99.90
4759;DHT22;2393;50.560;12.636;2023-04-24T15:18:45;13.00;99.90
4759;DHT22;2393;50.560;12.636;2023-04-24T15:21:13;13.00;99.90
4759;DHT22;2393;50.560;12.636;2023-04-24T15:23:41;13.10;99.90
4759;DHT22;2393;50.560;12.636;2023-04-24T15:26:09;13.10;99.90
4759;DHT22;2393;50.560;12.636;2023-04-24T15:28:37;13.10;99.90
4759;DHT22;2393;50.560;12.636;2023-04-24T15:31:05;13.20;99.90
4759;DHT22;2393;50.560;12.636;2023-04-24T15:33:35;13.20;99.90
4759;DHT22;2393;50.560;12.636;2023-04-24T15:36:03;13.20;99.90
4759;DHT22;2393;50.560;12.636;2023-04-24T15:38:31;13.20;99.90
4759;DHT22;2393;50.560;12.636;2023-04-24T15:40:59;13.20;99.90
4759;DHT22;2393;50.560;12.636;2023-04-24T15:43:28;13.10;99.90
4759;DHT22;2393;50.560;12.636;2023-04-24T15:45:57;13.00;99.90
4759;DHT22;2393;50.560;12.636;2023-04-24T15:48:27;12.80;99.90
4759;DHT22;2393;50.560;12.636;2023-04-24T15:50:56;12.70;99.90
4759;DHT22;2393;50.560;12.636;2023-04-24T15:53:25;12.60;99.90
4759;DHT22;2393;50.560;12.636;2023-04-24T15:55:54;12.50;99.90
4759;DHT22;2393;50.560;12.636;2023-04-24T15:58:22;12.40;99.90
4759;DHT22;2393;50.560;12.636;2023-04-24T16:00:51;12.40;99.90
4759;DHT22;2393;50.560;12.636;2023-04-24T16:03:21;12.50;99.90
4759;DHT22;2393;50.560;12.636;2023-04-24T16:05:49;12.50;99.90